Time;durP1;ratioP1;P1;durP2;ratioP2;P2;SDS_P1;SDS_P2;PMS_P1;PMS_P2;Temp;Humidity;BMP_temperature;BMP_pressure;BME280_temperature;BME280_humidity;BME280_pressure;Samples;Min_cycle;Max_cycle;Signal;HPM_P1;HPM_P2
2023/12/09 00:00:42;;;;;;;79.15;33.80;;;2.80;99.90;;;;;;5043162;28;20206;-62
2023/12/09 00:03:10;;;;;;;79.93;36.35;;;2.80;99.90;;;;;;5041270;28;20207;-63
2023/12/09 00:05:37;;;;;;;88.13;37.85;;;2.80;99.90;;;;;;5043745;28;20211;-62
2023/12/09 00:08:04;;;;;;;88.80;38.65;;;2.80;99.90;;;;;;5041620;28;20203;-61
2023/12/09 00:10:30;;;;;;;73.47;36.65;;;2.80;99.90;;;;;;5042120;28;20293;-63
2023/12/09 00:12:57;;;;;;;87.95;38.60;;;2.80;99.90;;;;;;5041321;28;20588;-62
2023/12/09 00:15:24;;;;;;;77.85;39.35;;;2.80;99.90;;;;;;5039410;28;20233;-62
2023/12/09 00:17:51;;;;;;;96.85;38.65;;;2.80;99.90;;;;;;5039945;28;20205;-63
2023/12/09 00:20:19;;;;;;;86.15;36.05;;;2.80;99.90;;;;;;5042600;28;20241;-62
2023/12/09 00:22:46;;;;;;;80.88;35.65;;;2.80;99.90;;;;;;5042535;28;20297;-62
2023/12/09 00:25:13;;;;;;;69.00;35.78;;;2.80;99.90;;;;;;5039142;28;20195;-61
2023/12/09 00:27:40;;;;;;;74.28;37.58;;;2.80;99.90;;;;;;5038980;28;20692;-61
2023/12/09 00:30:08;;;;;;;98.93;39.45;;;2.80;99.90;;;;;;5042063;28;20305;-61
2023/12/09 00:32:35;;;;;;;95.97;37.05;;;2.80;99.90;;;;;;5042290;28;20210;-62
2023/12/09 00:35:02;;;;;;;76.20;34.33;;;2.80;99.90;;;;;;5040277;28;20232;-63
2023/12/09 00:37:31;;;;;;;69.40;30.70;;;2.80;99.90;;;;;;5038599;28;20203;-62
2023/12/09 00:39:58;;;;;;;69.47;32.75;;;2.80;99.90;;;;;;5040752;28;20231;-62
2023/12/09 00:42:25;;;;;;;91.32;36.30;;;2.80;99.90;;;;;;5042643;28;20293;-62
2023/12/09 00:44:51;;;;;;;81.75;37.80;;;2.80;99.90;;;;;;5041577;28;20210;-62
2023/12/09 00:47:18;;;;;;;94.82;36.70;;;2.80;99.90;;;;;;5038794;28;20202;-61
2023/12/09 00:49:45;;;;;;;73.82;36.67;;;2.80;99.90;;;;;;5038849;28;20229;-62
2023/12/09 00:52:12;;;;;;;82.20;33.60;;;2.80;99.90;;;;;;5045055;28;20308;-63
2023/12/09 00:54:40;;;;;;;65.05;31.10;;;2.80;99.90;;;;;;5046646;28;20229;-62
2023/12/09 00:57:07;;;;;;;58.85;33.17;;;2.80;99.90;;;;;;5043473;28;20211;-63
2023/12/09 00:59:35;;;;;;;75.72;36.50;;;2.80;99.90;;;;;;5042340;28;20721;-62
2023/12/09 01:02:02;;;;;;;84.75;35.13;;;2.80;99.90;;;;;;5044736;28;20207;-64
2023/12/09 01:04:28;;;;;;;92.50;35.85;;;2.80;99.90;;;;;;5045852;28;20203;-63
2023/12/09 01:06:55;;;;;;;80.82;34.67;;;2.80;99.90;;;;;;5044916;28;20206;-63
2023/12/09 01:09:22;;;;;;;87.78;36.40;;;2.80;99.90;;;;;;5042287;28;20223;-62
2023/12/09 01:11:50;;;;;;;89.68;36.35;;;2.80;99.90;;;;;;5043063;28;20225;-63
2023/12/09 01:14:17;;;;;;;78.05;36.85;;;2.90;99.90;;;;;;5046095;28;20596;-63
2023/12/09 01:16:44;;;;;;;61.47;31.42;;;2.90;99.90;;;;;;5045891;28;20206;-64
2023/12/09 01:19:11;;;;;;;74.07;34.55;;;2.90;99.90;;;;;;5049947;28;20994;-63
2023/12/09 01:21:37;;;;;;;66.40;31.63;;;2.90;99.90;;;;;;5042612;28;20202;-63
2023/12/09 01:24:05;;;;;;;82.50;35.72;;;2.90;99.90;;;;;;5044470;28;20703;-61
2023/12/09 01:26:32;;;;;;;92.03;39.63;;;2.90;99.90;;;;;;5045052;28;20294;-63
2023/12/09 01:29:02;;;;;;;70.32;33.45;;;2.90;99.90;;;;;;5043076;28;20264;-64
2023/12/09 01:31:29;;;;;;;71.60;35.50;;;2.90;99.90;;;;;;5041989;28;20673;-64
2023/12/09 01:33:56;;;;;;;80.70;34.33;;;2.90;99.90;;;;;;5042938;28;20219;-63
2023/12/09 01:36:22;;;;;;;76.13;34.70;;;2.90;99.90;;;;;;5045235;28;20293;-63
2023/12/09 01:38:49;;;;;;;73.57;32.53;;;2.90;99.90;;;;;;5044638;28;20223;-63
2023/12/09 01:41:16;;;;;;;79.57;32.63;;;2.90;99.90;;;;;;5041893;28;20294;-63
2023/12/09 01:43:48;;;;;;;87.55;32.40;;;2.90;99.90;;;;;;5041767;28;20199;-63
2023/12/09 01:46:18;;;;;;;81.22;35.10;;;2.90;99.90;;;;;;5037189;28;20290;-63
2023/12/09 01:48:46;;;;;;;67.10;33.30;;;2.90;99.90;;;;;;5044710;28;20731;-62
2023/12/09 01:51:14;;;;;;;92.13;36.28;;;2.90;99.90;;;;;;5041412;28;20199;-64
2023/12/09 01:53:42;;;;;;;82.95;35.45;;;2.90;99.90;;;;;;5041442;28;20298;-64
2023/12/09 01:56:11;;;;;;;76.05;33.67;;;2.90;99.90;;;;;;5044417;28;20199;-63
2023/12/09 01:58:39;;;;;;;93.75;42.90;;;2.90;99.90;;;;;;5044284;28;20222;-63
2023/12/09 02:01:06;;;;;;;80.57;32.00;;;2.90;99.90;;;;;;5042301;28;20554;-63
2023/12/09 02:03:35;;;;;;;73.03;32.13;;;2.90;99.90;;;;;;5041199;28;20291;-63
2023/12/09 02:06:02;;;;;;;75.15;34.10;;;2.90;99.90;;;;;;5043287;28;20226;-63
2023/12/09 02:08:28;;;;;;;75.85;31.40;;;2.90;99.90;;;;;;5044547;28;20233;-63
2023/12/09 02:11:06;;;;;;;76.28;34.53;;;2.90;99.90;;;;;;5042900;28;20213;-63
2023/12/09 02:13:43;;;;;;;77.07;34.45;;;2.90;99.90;;;;;;5041460;28;20783;-63
2023/12/09 02:16:15;;;;;;;80.10;36.45;;;2.90;99.90;;;;;;5044210;28;20199;-63
2023/12/09 02:18:45;;;;;;;67.95;33.40;;;3.00;99.90;;;;;;5044298;28;20317;-63
2023/12/09 02:21:13;;;;;;;79.65;33.90;;;3.00;99.90;;;;;;5041054;28;20687;-62
2023/12/09 02:23:41;;;;;;;78.03;33.97;;;2.90;99.90;;;;;;5040784;28;20238;-63
2023/12/09 02:26:16;;;;;;;90.43;35.10;;;2.90;99.90;;;;;;5043527;28;20203;-63
2023/12/09 02:28:51;;;;;;;76.40;35.60;;;3.00;99.90;;;;;;5044213;28;20232;-63
2023/12/09 02:31:24;;;;;;;70.25;32.67;;;3.00;99.90;;;;;;5040792;28;20231;-63
2023/12/09 02:33:51;;;;;;;82.85;35.20;;;3.00;99.90;;;;;;5049223;28;20289;-62
2023/12/09 02:36:22;;;;;;;70.00;32.22;;;3.00;99.90;;;;;;5051225;28;20282;-61
2023/12/09 02:38:52;;;;;;;79.80;32.78;;;3.00;99.90;;;;;;5039736;28;20313;-61
2023/12/09 02:41:20;;;;;;;78.68;37.20;;;3.00;99.90;;;;;;5049199;28;20230;-64
2023/12/09 02:43:48;;;;;;;86.15;34.45;;;3.00;99.90;;;;;;5043878;28;20708;-63
2023/12/09 02:46:15;;;;;;;62.72;32.13;;;3.00;99.90;;;;;;5042758;28;20282;-62
2023/12/09 02:48:42;;;;;;;80.75;32.58;;;3.00;99.90;;;;;;5039220;28;20240;-63
2023/12/09 02:51:09;;;;;;;69.32;32.03;;;3.00;99.90;;;;;;5051980;28;20207;-63
2023/12/09 02:53:36;;;;;;;71.75;32.50;;;3.00;99.90;;;;;;5052242;28;20775;-63
2023/12/09 02:56:04;;;;;;;88.53;35.35;;;3.00;99.90;;;;;;5051777;28;20230;-63
2023/12/09 02:58:31;;;;;;;82.55;38.65;;;3.00;99.90;;;;;;5051611;28;20229;-63
2023/12/09 03:00:58;;;;;;;72.57;32.53;;;3.00;99.90;;;;;;5051591;28;20232;-61
2023/12/09 03:03:25;;;;;;;65.35;31.20;;;3.00;99.90;;;;;;5051682;28;20202;-62
2023/12/09 03:05:52;;;;;;;71.53;35.03;;;3.00;99.90;;;;;;5051889;28;20216;-63
2023/12/09 03:08:18;;;;;;;83.38;34.25;;;3.00;99.90;;;;;;5051078;28;20747;-63
2023/12/09 03:10:45;;;;;;;72.90;35.78;;;3.00;99.90;;;;;;5051730;28;20208;-63
2023/12/09 03:13:13;;;;;;;60.65;28.88;;;3.10;99.90;;;;;;5043022;28;20213;-62
2023/12/09 03:15:40;;;;;;;71.05;31.50;;;3.10;99.90;;;;;;5051588;28;20211;-62
2023/12/09 03:18:07;;;;;;;72.90;30.83;;;3.10;99.90;;;;;;5050858;28;20221;-62
2023/12/09 03:20:34;;;;;;;69.75;35.10;;;3.10;99.90;;;;;;5051743;28;20198;-63
2023/12/09 03:23:01;;;;;;;70.32;32.10;;;3.10;99.90;;;;;;5051922;28;20206;-61
2023/12/09 03:25:27;;;;;;;82.50;35.00;;;3.10;99.90;;;;;;5051533;28;20205;-63
2023/12/09 03:27:54;;;;;;;88.25;35.42;;;3.10;99.90;;;;;;5051506;28;20876;-62
2023/12/09 03:30:22;;;;;;;78.03;32.03;;;3.10;99.90;;;;;;5051779;28;20240;-63
2023/12/09 03:32:49;;;;;;;66.47;28.50;;;3.10;99.90;;;;;;5051863;28;20576;-62
2023/12/09 03:35:16;;;;;;;71.82;32.55;;;3.10;99.90;;;;;;5051599;28;20226;-63
2023/12/09 03:37:43;;;;;;;68.05;29.75;;;3.10;99.90;;;;;;5051598;28;20209;-62
2023/12/09 03:40:11;;;;;;;62.58;30.95;;;3.10;99.90;;;;;;5051693;28;20226;-63
2023/12/09 03:42:38;;;;;;;70.63;29.65;;;3.10;99.90;;;;;;5050497;28;20217;-60
2023/12/09 03:45:06;;;;;;;87.45;31.52;;;3.10;99.90;;;;;;5051158;28;20202;-62
2023/12/09 03:47:34;;;;;;;89.18;37.50;;;3.10;99.90;;;;;;5051457;28;20624;-61
2023/12/09 03:50:02;;;;;;;62.58;28.95;;;3.10;99.90;;;;;;5051601;28;20605;-62
2023/12/09 03:52:29;;;;;;;71.35;34.33;;;3.10;99.90;;;;;;5051584;28;20605;-63
2023/12/09 03:54:56;;;;;;;77.07;32.17;;;3.10;99.90;;;;;;5051488;28;20226;-62
2023/12/09 03:57:23;;;;;;;66.15;32.30;;;3.10;99.90;;;;;;5051219;28;20305;-63
2023/12/09 03:59:50;;;;;;;80.32;31.92;;;3.10;99.90;;;;;;5051336;28;20230;-62
2023/12/09 04:02:18;;;;;;;84.05;33.30;;;3.10;99.90;;;;;;5051670;28;20210;-64
2023/12/09 04:04:46;;;;;;;72.25;28.67;;;3.10;99.90;;;;;;5051510;28;20239;-63
2023/12/09 04:07:13;;;;;;;68.72;30.65;;;3.10;99.90;;;;;;5050926;28;20213;-62
2023/12/09 04:09:41;;;;;;;77.47;32.50;;;3.10;99.90;;;;;;5051052;28;20232;-62
2023/12/09 04:12:08;;;;;;;77.43;32.75;;;3.10;99.90;;;;;;5051037;28;20202;-62
2023/12/09 04:14:34;;;;;;;71.90;31.00;;;3.10;99.90;;;;;;5051256;28;20237;-61
2023/12/09 04:17:01;;;;;;;60.78;28.02;;;3.10;99.90;;;;;;5051296;28;20658;-61
2023/12/09 04:19:28;;;;;;;82.80;33.78;;;3.10;99.90;;;;;;5050732;28;20321;-62
2023/12/09 04:21:56;;;;;;;74.90;31.92;;;3.10;99.90;;;;;;5051212;28;20256;-60
2023/12/09 04:24:23;;;;;;;79.00;30.63;;;3.10;99.90;;;;;;5050901;28;20202;-61
2023/12/09 04:26:50;;;;;;;74.05;33.67;;;3.10;99.90;;;;;;5050018;28;20205;-63
2023/12/09 04:29:17;;;;;;;63.92;30.02;;;3.10;99.90;;;;;;5050746;28;20610;-61
2023/12/09 04:31:44;;;;;;;80.45;28.63;;;3.10;99.90;;;;;;5051233;28;20206;-62
2023/12/09 04:34:11;;;;;;;64.60;30.05;;;3.10;99.90;;;;;;5051183;28;20210;-59
2023/12/09 04:36:38;;;;;;;69.70;29.50;;;3.10;99.90;;;;;;5050606;28;20321;-62
2023/12/09 04:39:07;;;;;;;60.78;30.25;;;3.10;99.90;;;;;;5050507;28;20720;-61
2023/12/09 04:41:34;;;;;;;62.53;32.20;;;3.10;99.90;;;;;;5051000;28;20297;-59
2023/12/09 04:44:01;;;;;;;62.97;31.17;;;3.10;99.90;;;;;;5050975;28;20681;-61
2023/12/09 04:46:28;;;;;;;63.08;31.50;;;3.10;99.90;;;;;;5050992;28;20204;-63
2023/12/09 04:48:56;;;;;;;50.75;26.30;;;3.10;99.90;;;;;;5050524;28;20313;-63
2023/12/09 04:51:23;;;;;;;60.25;29.63;;;3.10;99.90;;;;;;5050771;28;20206;-61
2023/12/09 04:53:50;;;;;;;59.13;26.83;;;3.10;99.90;;;;;;5049673;28;20217;-62
2023/12/09 04:56:18;;;;;;;85.50;34.15;;;3.10;99.90;;;;;;5050621;28;20716;-61
2023/12/09 04:58:46;;;;;;;80.25;31.50;;;3.10;99.90;;;;;;5050551;28;20829;-60
2023/12/09 05:01:12;;;;;;;80.53;30.25;;;3.10;99.90;;;;;;5050868;28;20210;-60
2023/12/09 05:03:39;;;;;;;58.15;28.77;;;3.10;99.90;;;;;;5050848;28;20302;-61
2023/12/09 05:06:06;;;;;;;66.85;33.17;;;3.10;99.90;;;;;;5050912;28;20617;-61
2023/12/09 05:08:33;;;;;;;70.00;29.90;;;3.10;99.90;;;;;;5050715;28;20320;-62
2023/12/09 05:11:00;;;;;;;77.57;31.48;;;3.10;99.90;;;;;;5050839;28;20211;-61
2023/12/09 05:13:29;;;;;;;60.67;27.20;;;3.10;99.90;;;;;;5050848;28;20264;-61
2023/12/09 05:15:55;;;;;;;53.55;29.45;;;3.10;99.90;;;;;;5050518;28;20222;-60
2023/12/09 05:18:22;;;;;;;63.92;28.83;;;3.10;99.90;;;;;;5050515;28;20221;-62
2023/12/09 05:20:49;;;;;;;67.72;31.15;;;3.10;99.90;;;;;;5050775;28;20626;-60
2023/12/09 05:23:16;;;;;;;63.22;29.83;;;3.10;99.90;;;;;;5050583;28;20210;-60
2023/12/09 05:25:44;;;;;;;61.50;28.30;;;3.20;99.90;;;;;;5050623;28;20297;-62
2023/12/09 05:28:11;;;;;;;59.22;27.23;;;3.20;99.90;;;;;;5050247;28;20207;-62
2023/12/09 05:30:42;;;;;;;64.93;28.35;;;3.20;99.90;;;;;;5050459;28;20216;-62
2023/12/09 05:33:08;;;;;;;56.00;31.25;;;3.20;99.90;;;;;;5050738;28;20218;-61
2023/12/09 05:35:36;;;;;;;68.03;29.10;;;3.20;99.90;;;;;;5050280;28;20708;-62
2023/12/09 05:38:03;;;;;;;56.13;27.17;;;3.10;99.90;;;;;;5052603;28;20209;-59
2023/12/09 05:40:29;;;;;;;53.30;27.08;;;3.20;99.90;;;;;;5054135;28;20222;-60
2023/12/09 05:42:56;;;;;;;62.13;29.50;;;3.20;99.90;;;;;;5053893;28;20202;-59
2023/12/09 05:45:23;;;;;;;61.28;28.65;;;3.20;99.90;;;;;;5054167;28;20206;-61
2023/12/09 05:47:51;;;;;;;60.80;32.55;;;3.20;99.90;;;;;;5053671;28;20740;-61
2023/12/09 05:50:18;;;;;;;60.03;27.33;;;3.20;99.90;;;;;;5053910;28;20229;-60
2023/12/09 05:52:45;;;;;;;73.13;33.13;;;3.20;99.90;;;;;;5053865;28;20301;-61
2023/12/09 05:55:15;;;;;;;69.32;28.67;;;3.20;99.90;;;;;;5053854;28;20824;-62
2023/12/09 05:57:42;;;;;;;57.08;30.38;;;3.20;99.90;;;;;;5053496;28;20298;-62
2023/12/09 06:00:11;;;;;;;57.22;28.58;;;3.20;99.90;;;;;;5053588;28;20252;-61
2023/12/09 06:02:40;;;;;;;62.22;33.10;;;3.20;99.90;;;;;;5053243;28;20700;-61
2023/12/09 06:05:09;;;;;;;59.47;28.67;;;3.20;99.90;;;;;;5051241;28;20239;-61
2023/12/09 06:07:36;;;;;;;65.05;30.70;;;3.20;99.90;;;;;;5052345;28;20199;-60
2023/12/09 06:10:02;;;;;;;60.13;29.33;;;3.20;99.90;;;;;;5053086;28;20230;-61
2023/12/09 06:12:29;;;;;;;63.78;30.67;;;3.20;99.90;;;;;;5041863;28;20706;-61
2023/12/09 06:14:56;;;;;;;69.00;30.65;;;3.20;99.90;;;;;;5047255;28;20209;-61
2023/12/09 06:17:23;;;;;;;59.90;29.63;;;3.20;99.90;;;;;;5049341;28;20974;-61
2023/12/09 06:19:50;;;;;;;60.35;27.77;;;3.20;99.90;;;;;;5053082;28;20234;-61
2023/12/09 06:22:18;;;;;;;68.78;29.10;;;3.20;99.90;;;;;;5053048;28;20206;-60
2023/12/09 06:24:45;;;;;;;55.38;28.95;;;3.30;99.90;;;;;;5053097;28;20206;-60
2023/12/09 06:27:12;;;;;;;56.10;25.88;;;3.30;99.90;;;;;;5053129;28;20289;-60
2023/12/09 06:29:39;;;;;;;69.10;29.40;;;3.30;99.90;;;;;;5052766;28;20260;-61
2023/12/09 06:32:06;;;;;;;51.17;27.15;;;3.30;99.90;;;;;;5053196;28;20585;-59
2023/12/09 06:34:33;;;;;;;62.80;27.30;;;3.30;99.90;;;;;;5052939;28;20745;-61
2023/12/09 06:37:00;;;;;;;53.10;25.48;;;3.30;99.90;;;;;;5052762;28;20325;-60
2023/12/09 06:39:28;;;;;;;56.00;29.75;;;3.30;99.90;;;;;;5052391;28;20231;-60
2023/12/09 06:41:55;;;;;;;67.68;27.55;;;3.30;99.90;;;;;;5052865;28;20209;-61
2023/12/09 06:44:22;;;;;;;54.47;24.10;;;3.30;99.90;;;;;;5052968;28;20229;-60
2023/12/09 06:46:48;;;;;;;48.75;27.27;;;3.30;99.90;;;;;;5052738;28;20202;-61
2023/12/09 06:49:16;;;;;;;49.63;26.98;;;3.40;99.90;;;;;;5052380;28;20226;-62
2023/12/09 06:51:43;;;;;;;68.38;28.70;;;3.40;99.90;;;;;;5052556;28;20206;-61
2023/12/09 06:54:10;;;;;;;59.63;29.35;;;3.40;99.90;;;;;;5075550;22;20231;-59
2023/12/09 06:56:39;;;;;;;51.95;25.00;;;3.40;99.90;;;;;;5052606;28;20230;-57
2023/12/09 06:59:06;;;;;;;52.03;26.77;;;3.40;99.90;;;;;;5052283;28;20202;-57
2023/12/09 07:01:33;;;;;;;51.92;28.40;;;3.40;99.90;;;;;;5052483;28;20206;-54
2023/12/09 07:04:00;;;;;;;66.30;27.40;;;3.40;99.90;;;;;;5052670;28;20312;-57
2023/12/09 07:06:28;;;;;;;69.50;32.15;;;3.40;99.90;;;;;;5052446;28;20305;-56
2023/12/09 07:08:57;;;;;;;56.50;30.10;;;3.40;99.90;;;;;;5052353;28;20253;-59
2023/12/09 07:11:24;;;;;;;53.90;25.75;;;3.40;99.90;;;;;;5052563;28;20272;-59
2023/12/09 07:13:52;;;;;;;49.33;27.33;;;3.40;99.90;;;;;;5052297;28;20317;-57
2023/12/09 07:16:19;;;;;;;52.28;25.58;;;3.50;99.90;;;;;;5052185;28;20237;-59
2023/12/09 07:18:46;;;;;;;57.13;27.52;;;3.50;99.90;;;;;;5052284;28;20242;-57
2023/12/09 07:21:14;;;;;;;58.90;28.30;;;3.50;99.90;;;;;;5052242;28;20214;-57
2023/12/09 07:23:41;;;;;;;65.07;33.10;;;3.50;99.90;;;;;;5052209;28;20226;-59
2023/12/09 07:26:08;;;;;;;55.38;27.17;;;3.40;99.90;;;;;;5052110;28;20209;-57
2023/12/09 07:28:35;;;;;;;82.85;29.17;;;3.50;99.90;;;;;;5051996;28;20234;-59
2023/12/09 07:31:03;;;;;;;59.65;28.33;;;3.50;99.90;;;;;;5052339;28;20297;-57
2023/12/09 07:33:30;;;;;;;45.58;26.45;;;3.50;99.90;;;;;;5052086;28;20223;-56
2023/12/09 07:35:57;;;;;;;58.63;26.80;;;3.50;99.90;;;;;;5052023;28;20219;-56
2023/12/09 07:38:24;;;;;;;54.67;26.58;;;3.50;99.90;;;;;;5051739;28;20203;-58
2023/12/09 07:40:51;;;;;;;51.90;25.85;;;3.60;99.90;;;;;;5051883;28;20210;-55
2023/12/09 07:43:18;;;;;;;62.50;31.75;;;3.60;99.90;;;;;;5051636;28;20230;-59
2023/12/09 07:45:45;;;;;;;65.00;33.42;;;3.60;99.90;;;;;;5052025;28;20590;-59
2023/12/09 07:48:13;;;;;;;58.10;34.92;;;3.60;99.90;;;;;;5051382;28;20210;-59
2023/12/09 07:50:40;;;;;;;65.70;38.67;;;3.60;99.90;;;;;;5051758;28;20210;-55
2023/12/09 07:53:07;;;;;;;57.15;34.45;;;3.70;99.90;;;;;;5051596;28;20212;-57
2023/12/09 07:55:33;;;;;;;69.32;34.15;;;3.70;99.90;;;;;;5051507;28;20585;-56
2023/12/09 07:58:00;;;;;;;66.15;42.63;;;3.70;99.90;;;;;;5051705;28;20328;-57
2023/12/09 08:00:27;;;;;;;67.63;41.63;;;3.70;99.90;;;;;;5051113;28;20297;-55
2023/12/09 08:02:54;;;;;;;97.38;49.50;;;3.70;99.90;;;;;;5051559;28;20226;-59
2023/12/09 08:05:23;;;;;;;70.93;43.30;;;3.80;99.90;;;;;;5051403;28;20233;-56
2023/12/09 08:07:50;;;;;;;69.57;36.78;;;3.80;99.90;;;;;;5051131;28;20621;-56
2023/12/09 08:10:17;;;;;;;71.55;36.08;;;3.80;99.90;;;;;;5051345;28;20566;-59
2023/12/09 08:12:44;;;;;;;75.43;36.65;;;3.80;99.90;;;;;;5051648;28;20297;-57
2023/12/09 08:15:10;;;;;;;77.68;34.20;;;3.90;99.90;;;;;;5051352;28;20240;-57
2023/12/09 08:17:37;;;;;;;70.47;30.92;;;3.90;99.90;;;;;;5051171;28;20230;-56
2023/12/09 08:20:08;;;;;;;56.13;33.70;;;3.90;99.90;;;;;;5051410;28;20212;-55
2023/12/09 08:22:38;;;;;;;59.47;32.15;;;3.90;99.90;;;;;;5051434;28;20214;-54
2023/12/09 08:25:07;;;;;;;67.95;31.98;;;3.90;99.90;;;;;;5051166;28;20241;-57
2023/12/09 08:27:33;;;;;;;70.47;32.85;;;4.00;99.90;;;;;;5051071;28;20687;-55
2023/12/09 08:30:00;;;;;;;68.07;30.45;;;4.00;99.90;;;;;;5050358;28;20288;-58
2023/12/09 08:32:27;;;;;;;80.03;32.67;;;4.00;99.90;;;;;;5051149;28;20240;-56
2023/12/09 08:34:54;;;;;;;65.63;28.30;;;4.00;99.90;;;;;;5050977;28;20228;-59
2023/12/09 08:37:25;;;;;;;68.28;32.90;;;4.00;99.90;;;;;;5050813;28;20222;-58
2023/12/09 08:39:55;;;;;;;76.68;34.13;;;4.10;99.90;;;;;;5051392;28;20591;-55
2023/12/09 08:42:21;;;;;;;70.80;33.63;;;4.10;99.90;;;;;;5043616;28;20202;-57
2023/12/09 08:44:48;;;;;;;63.80;32.38;;;4.10;99.90;;;;;;5051072;28;20317;-55
2023/12/09 08:47:15;;;;;;;60.08;35.53;;;4.10;99.90;;;;;;5050345;28;20887;-55
2023/12/09 08:49:43;;;;;;;89.80;40.28;;;4.10;99.90;;;;;;5050719;28;20229;-57
2023/12/09 08:52:10;;;;;;;71.82;34.33;;;4.20;99.90;;;;;;5051245;28;20206;-54
2023/12/09 08:54:37;;;;;;;55.45;31.17;;;4.20;99.90;;;;;;5050588;28;20616;-58
2023/12/09 08:57:06;;;;;;;57.90;29.42;;;4.30;99.90;;;;;;5051041;28;20296;-59
2023/12/09 08:59:32;;;;;;;130.50;74.13;;;4.30;99.90;;;;;;5050863;28;20221;-57
2023/12/09 09:01:59;;;;;;;190.18;107.63;;;4.30;99.90;;;;;;5050826;28;20213;-56
2023/12/09 09:04:26;;;;;;;52.45;30.52;;;4.40;99.90;;;;;;5050638;28;20281;-58
2023/12/09 09:06:53;;;;;;;67.68;35.72;;;4.40;99.90;;;;;;5050655;28;20207;-55
2023/12/09 09:09:20;;;;;;;53.38;29.92;;;4.40;99.90;;;;;;5050276;28;20552;-57
2023/12/09 09:11:47;;;;;;;64.60;32.17;;;4.50;99.90;;;;;;5047820;28;20217;-59
2023/12/09 09:14:15;;;;;;;61.10;31.00;;;4.50;99.90;;;;;;5053694;28;20246;-57
2023/12/09 09:16:42;;;;;;;79.43;42.05;;;4.60;99.90;;;;;;5053968;28;20229;-58
2023/12/09 09:19:09;;;;;;;106.53;63.00;;;4.60;99.90;;;;;;5053096;28;20214;-56
2023/12/09 09:21:36;;;;;;;89.28;51.92;;;4.60;99.90;;;;;;5053071;28;20556;-57
2023/12/09 09:24:03;;;;;;;75.88;46.95;;;4.60;99.90;;;;;;5053511;28;20232;-56
2023/12/09 09:26:30;;;;;;;78.80;42.65;;;4.70;99.90;;;;;;5053833;28;20586;-59
2023/12/09 09:28:57;;;;;;;72.45;34.53;;;4.70;99.90;;;;;;5053977;28;20293;-59
2023/12/09 09:31:25;;;;;;;62.15;33.88;;;4.80;99.90;;;;;;5053084;28;20660;-59
2023/12/09 09:33:52;;;;;;;61.60;32.42;;;4.80;99.90;;;;;;5053146;28;20219;-57
2023/12/09 09:36:19;;;;;;;69.53;43.15;;;4.90;99.90;;;;;;5053613;28;20206;-57
2023/12/09 09:38:47;;;;;;;77.45;44.58;;;4.90;99.90;;;;;;5053368;28;20260;-59
2023/12/09 09:41:20;;;;;;;69.40;38.55;;;5.00;99.90;;;;;;5053176;28;20245;-58
2023/12/09 09:43:55;;;;;;;55.13;38.78;;;5.00;99.90;;;;;;5052921;28;20234;-59
2023/12/09 09:46:22;;;;;;;54.60;33.03;;;5.10;99.90;;;;;;5050960;28;20206;-58
2023/12/09 09:48:52;;;;;;;50.67;35.42;;;5.20;99.90;;;;;;5050325;28;20289;-57
2023/12/09 09:51:26;;;;;;;64.03;37.53;;;5.30;99.90;;;;;;5052500;28;20206;-60
2023/12/09 09:54:06;;;;;;;60.35;36.97;;;5.40;99.90;;;;;;5052579;28;20269;-56
2023/12/09 09:56:35;;;;;;;42.22;33.70;;;5.50;99.90;;;;;;5051287;28;20324;-60
2023/12/09 09:59:03;;;;;;;56.17;36.45;;;5.60;99.90;;;;;;5052047;28;20681;-60
2023/12/09 10:01:32;;;;;;;49.80;32.45;;;5.60;99.90;;;;;;5052002;28;20276;-60
2023/12/09 10:04:01;;;;;;;49.28;28.10;;;5.70;99.90;;;;;;5051962;28;20222;-58
2023/12/09 10:06:30;;;;;;;53.17;30.95;;;5.80;99.90;;;;;;5049864;28;20300;-60
2023/12/09 10:08:58;;;;;;;50.42;33.20;;;6.00;99.90;;;;;;5051218;28;20203;-60
2023/12/09 10:11:25;;;;;;;72.63;43.83;;;6.00;99.90;;;;;;5050725;28;20205;-59
2023/12/09 10:13:51;;;;;;;72.28;44.63;;;6.10;99.90;;;;;;5051879;28;20236;-59
2023/12/09 10:16:18;;;;;;;56.63;38.25;;;6.20;99.90;;;;;;5050987;28;20206;-58
2023/12/09 10:18:46;;;;;;;75.45;50.05;;;6.20;99.90;;;;;;5051617;28;20260;-57
2023/12/09 10:21:15;;;;;;;64.47;41.88;;;6.30;99.90;;;;;;5051451;28;20280;-56
2023/12/09 10:23:42;;;;;;;51.00;35.90;;;6.40;99.90;;;;;;5050852;28;20233;-59
2023/12/09 10:26:09;;;;;;;43.00;28.30;;;6.50;99.90;;;;;;5050231;28;20297;-59
2023/12/09 10:28:36;;;;;;;44.88;28.35;;;6.60;99.90;;;;;;5051157;28;20771;-59
2023/12/09 10:31:03;;;;;;;36.25;24.35;;;6.60;99.90;;;;;;5051533;28;20284;-59
2023/12/09 10:33:30;;;;;;;45.00;28.42;;;6.60;99.90;;;;;;5051504;28;21010;-59
2023/12/09 10:35:57;;;;;;;32.13;23.95;;;6.70;99.90;;;;;;5051457;28;20207;-61
2023/12/09 10:38:26;;;;;;;37.20;25.88;;;6.70;99.90;;;;;;5050814;28;20224;-59
2023/12/09 10:40:53;;;;;;;41.95;24.80;;;6.70;99.90;;;;;;5051892;28;20206;-59
2023/12/09 10:43:20;;;;;;;36.97;25.02;;;6.80;99.90;;;;;;5051648;28;20275;-57
2023/12/09 10:45:48;;;;;;;43.85;26.17;;;6.90;99.90;;;;;;5051363;28;20206;-60
2023/12/09 10:48:15;;;;;;;50.42;29.85;;;6.90;99.90;;;;;;5050974;28;20210;-58
2023/12/09 10:50:46;;;;;;;40.33;28.25;;;7.00;99.90;;;;;;5048665;28;20210;-60
2023/12/09 10:53:13;;;;;;;36.25;27.17;;;7.10;99.90;;;;;;5051077;28;20631;-59
2023/12/09 10:55:41;;;;;;;27.85;21.77;;;7.20;99.90;;;;;;5050939;28;20739;-60
2023/12/09 10:58:09;;;;;;;29.88;19.88;;;7.30;99.90;;;;;;5050544;28;20222;-59
2023/12/09 11:00:37;;;;;;;30.13;18.90;;;7.40;99.90;;;;;;5051216;28;20643;-60
2023/12/09 11:03:06;;;;;;;26.05;20.52;;;7.40;99.90;;;;;;5050831;28;20206;-57
2023/12/09 11:05:40;;;;;;;33.10;23.75;;;7.50;99.90;;;;;;5051797;28;20261;-59
2023/12/09 11:08:10;;;;;;;31.95;21.48;;;7.60;99.90;;;;;;5051406;28;20198;-59
2023/12/09 11:10:37;;;;;;;25.17;20.83;;;7.60;99.90;;;;;;5051873;28;20289;-60
2023/12/09 11:13:06;;;;;;;23.25;18.95;;;7.70;99.90;;;;;;5051304;28;20207;-59
2023/12/09 11:15:33;;;;;;;32.40;21.63;;;7.70;99.90;;;;;;5051535;28;20203;-59
2023/12/09 11:18:17;;;;;;;27.80;19.30;;;7.80;99.90;;;;;;5050886;28;20221;-58
2023/12/09 11:20:46;;;;;;;28.60;22.25;;;7.80;99.90;;;;;;5050710;28;20285;-57
2023/12/09 11:23:13;;;;;;;22.33;17.05;;;7.70;99.90;;;;;;5051196;28;20238;-56
2023/12/09 11:25:41;;;;;;;29.63;21.40;;;7.70;99.90;;;;;;5051325;28;20285;-60
2023/12/09 11:28:11;;;;;;;25.60;18.85;;;7.70;99.90;;;;;;5050749;28;20289;-60
2023/12/09 11:30:41;;;;;;;25.75;17.35;;;7.70;99.90;;;;;;5050995;28;20677;-58
2023/12/09 11:33:08;;;;;;;30.52;18.60;;;7.70;99.90;;;;;;5051087;28;20273;-57
2023/12/09 11:35:36;;;;;;;19.42;16.92;;;7.70;99.90;;;;;;5050348;28;20238;-56
2023/12/09 11:38:05;;;;;;;24.92;17.83;;;7.70;99.90;;;;;;5050648;28;20679;-60
2023/12/09 11:40:33;;;;;;;19.77;16.50;;;7.70;99.90;;;;;;5050989;28;20209;-59
2023/12/09 11:43:01;;;;;;;21.95;16.73;;;7.80;99.90;;;;;;5050533;28;20294;-60
2023/12/09 11:45:29;;;;;;;32.00;18.00;;;7.80;99.90;;;;;;5050416;28;20227;-60
2023/12/09 11:47:56;;;;;;;24.67;16.15;;;7.90;99.90;;;;;;5050615;28;20588;-60
2023/12/09 11:50:24;;;;;;;26.08;17.27;;;7.90;99.90;;;;;;5048859;28;20198;-59
2023/12/09 11:52:52;;;;;;;20.38;14.85;;;8.00;99.90;;;;;;5050150;28;20209;-59
2023/12/09 11:55:19;;;;;;;24.27;15.40;;;8.10;99.90;;;;;;5050352;28;20325;-59
2023/12/09 11:57:46;;;;;;;23.00;15.52;;;8.20;99.90;;;;;;5049604;28;20214;-60
2023/12/09 12:00:13;;;;;;;18.48;14.10;;;8.30;99.90;;;;;;5049480;28;20237;-59
2023/12/09 12:02:42;;;;;;;15.25;13.50;;;8.40;99.90;;;;;;5040615;28;20319;-58
2023/12/09 12:05:11;;;;;;;17.13;13.70;;;8.50;99.90;;;;;;5050330;28;20234;-57
2023/12/09 12:07:38;;;;;;;16.98;12.40;;;8.50;99.90;;;;;;5050209;28;20202;-55
2023/12/09 12:10:07;;;;;;;15.02;12.07;;;8.60;99.90;;;;;;5050202;28;20241;-60
2023/12/09 12:12:34;;;;;;;13.90;11.77;;;8.90;99.90;;;;;;5050452;28;20214;-60
2023/12/09 12:15:02;;;;;;;11.80;10.60;;;9.20;99.90;;;;;;5049886;28;20985;-57
2023/12/09 12:17:37;;;;;;;11.35;9.68;;;9.40;99.90;;;;;;5049952;28;20480;-58
2023/12/09 12:20:07;;;;;;;14.30;8.90;;;9.50;99.90;;;;;;5050444;28;20581;-60
2023/12/09 12:22:35;;;;;;;11.40;9.90;;;9.60;99.90;;;;;;5050526;28;20524;-59
2023/12/09 12:25:02;;;;;;;13.27;11.87;;;9.70;99.90;;;;;;5050305;28;20978;-58
2023/12/09 12:27:33;;;;;;;13.23;9.37;;;9.70;99.90;;;;;;5049982;28;20443;-60
2023/12/09 12:30:00;;;;;;;11.30;9.83;;;9.60;99.90;;;;;;5050295;28;20491;-60
2023/12/09 12:32:27;;;;;;;11.00;10.00;;;9.50;99.90;;;;;;5050326;28;20494;-58
2023/12/09 12:34:54;;;;;;;12.95;10.05;;;9.40;99.90;;;;;;5049656;28;20889;-59
2023/12/09 12:37:22;;;;;;;12.82;9.20;;;9.30;99.90;;;;;;5049542;28;20206;-61
2023/12/09 12:39:49;;;;;;;8.63;7.33;;;9.30;99.90;;;;;;5034184;28;20199;-59